Denmark, Wisconsin
Current Conditions -  °F | °C
As of 6:56 AM on Wednesday 26 Nov 2014 (Local Time) from KMTW Reporting Station
Clear Clear  
Wind Chill:   Ceiling: Unl
Heat Index: 13°   Visibility: 8mi
Dew Point: 11°   Wind: 7mph
Humidity: 92%   Direction: 330°NNW
Pressure: 30.16"   Gusts: NA
Location:  44.35°N, 87.83°W
Report Text: KMTW 261256Z AUTO 33006KT 8SM CLR M11/M12 A3016 RMK AO2 SLP240 T11061117 FZRANO
Loading
Personal Weather Stations






























Interactive Weather Map New forecast layout! Learn more

10-Day Weather Forecast

Advertisements
Track Severe Weather on mobile